Time;durP1;ratioP1;P1;durP2;ratioP2;P2;SDS_P1;SDS_P2;PMS_P1;PMS_P2;Temp;Humidity;BMP_temperature;BMP_pressure;BME280_temperature;BME280_humidity;BME280_pressure;Samples;Min_cycle;Max_cycle;Signal;HPM_P1;HPM_P2
2022/07/10 00:00:32;;;;;;;3.80;0.82;;;16.00;89.70;;;;;;5058120;28;20094;-84
2022/07/10 00:02:58;;;;;;;3.53;1.45;;;16.00;90.30;;;;;;5054285;28;20036;-82
2022/07/10 00:05:25;;;;;;;2.60;0.70;;;16.00;90.00;;;;;;5072853;28;20035;-81
2022/07/10 00:07:51;;;;;;;2.38;0.52;;;16.00;90.00;;;;;;5073081;28;20086;-81
2022/07/10 00:10:18;;;;;;;1.25;0.63;;;16.00;90.00;;;;;;5035052;28;20039;-85
2022/07/10 00:12:48;;;;;;;2.95;0.60;;;16.00;90.10;;;;;;5052984;28;20060;-82
2022/07/10 00:15:15;;;;;;;1.27;0.50;;;16.00;90.00;;;;;;5068410;28;20028;-83
2022/07/10 00:17:41;;;;;;;1.67;0.47;;;16.10;90.00;;;;;;5052278;28;20028;-82
2022/07/10 00:20:07;;;;;;;3.13;0.60;;;16.10;90.00;;;;;;5053204;28;20025;-81
2022/07/10 00:22:37;;;;;;;2.47;0.57;;;16.10;90.10;;;;;;5055099;28;20033;-81
2022/07/10 00:25:04;;;;;;;2.05;0.50;;;16.00;90.10;;;;;;5055498;28;20048;-82
2022/07/10 00:27:30;;;;;;;3.35;0.80;;;16.00;90.10;;;;;;5054515;28;20052;-81
2022/07/10 00:29:56;;;;;;;2.40;0.65;;;16.10;89.90;;;;;;5054484;28;20181;-81
2022/07/10 00:32:21;;;;;;;3.63;1.08;;;16.00;90.00;;;;;;5053806;28;20028;-81
2022/07/10 00:34:47;;;;;;;3.45;0.63;;;16.00;90.20;;;;;;5054020;28;20479;-83
2022/07/10 00:37:12;;;;;;;2.25;0.52;;;16.10;90.10;;;;;;5054130;28;20044;-82
2022/07/10 00:39:38;;;;;;;2.55;0.60;;;16.10;90.20;;;;;;5054850;28;20028;-82
2022/07/10 00:42:14;;;;;;;1.67;0.50;;;16.00;90.00;;;;;;5054466;28;20033;-81
2022/07/10 00:44:41;;;;;;;4.50;0.65;;;16.00;90.40;;;;;;5074574;28;20021;-81
2022/07/10 00:47:08;;;;;;;4.25;0.60;;;16.00;90.30;;;;;;5072605;28;20039;-84
2022/07/10 00:49:35;;;;;;;1.88;0.38;;;16.00;90.10;;;;;;5055044;28;20035;-78
2022/07/10 00:52:03;;;;;;;3.72;0.63;;;16.10;90.30;;;;;;5054288;28;20542;-85
2022/07/10 00:54:30;;;;;;;2.15;0.47;;;16.10;90.40;;;;;;5073166;28;20032;-82
2022/07/10 00:56:56;;;;;;;5.13;0.98;;;16.10;90.30;;;;;;5053654;28;20082;-81
2022/07/10 00:59:22;;;;;;;3.38;0.60;;;16.10;90.20;;;;;;5054869;28;20698;-81
2022/07/10 01:01:48;;;;;;;1.65;0.60;;;16.10;90.20;;;;;;5071646;28;20028;-81
2022/07/10 01:04:14;;;;;;;2.90;0.60;;;16.10;90.70;;;;;;5087126;28;20607;-83
2022/07/10 01:06:39;;;;;;;7.30;1.10;;;16.10;90.60;;;;;;5053534;28;20032;-81
2022/07/10 01:09:05;;;;;;;2.55;1.20;;;16.10;90.40;;;;;;5053952;28;20050;-81
2022/07/10 01:11:34;;;;;;;1.77;0.70;;;16.10;90.60;;;;;;5071176;28;20037;-81
2022/07/10 01:14:00;;;;;;;3.33;0.63;;;16.10;90.50;;;;;;5053715;28;20127;-82
2022/07/10 01:16:26;;;;;;;2.17;0.60;;;16.00;90.50;;;;;;5052968;28;20371;-81
2022/07/10 01:18:51;;;;;;;2.03;0.80;;;16.00;90.80;;;;;;5071685;28;20086;-82
2022/07/10 01:21:28;;;;;;;2.72;0.50;;;16.00;90.80;;;;;;5053669;28;20031;-81
2022/07/10 01:23:54;;;;;;;2.65;0.75;;;16.00;91.00;;;;;;5053359;28;20040;-80
2022/07/10 01:26:21;;;;;;;4.22;0.68;;;16.00;91.00;;;;;;5071130;28;20482;-80
2022/07/10 01:28:51;;;;;;;5.43;1.52;;;15.90;90.90;;;;;;5053729;28;20085;-81
2022/07/10 01:31:35;;;;;;;2.92;0.70;;;15.90;91.00;;;;;;5052989;28;20048;-85
2022/07/10 01:34:02;;;;;;;1.60;0.38;;;16.00;91.40;;;;;;5053451;28;20036;-84
2022/07/10 01:36:29;;;;;;;2.65;0.70;;;15.90;91.00;;;;;;5086782;28;20397;-82
2022/07/10 01:38:55;;;;;;;5.53;1.00;;;16.00;91.20;;;;;;5070977;28;20482;-87
2022/07/10 01:41:21;;;;;;;4.40;0.80;;;16.00;91.10;;;;;;5053182;28;20040;-82
2022/07/10 01:43:48;;;;;;;2.00;0.60;;;15.90;91.30;;;;;;5053045;28;20032;-81
2022/07/10 01:46:14;;;;;;;1.92;0.80;;;15.90;91.10;;;;;;5052291;28;20111;-83
2022/07/10 01:48:40;;;;;;;3.70;0.60;;;15.90;91.30;;;;;;5086341;28;20174;-81
2022/07/10 01:51:07;;;;;;;1.65;0.52;;;15.80;91.10;;;;;;5052487;28;20085;-81
2022/07/10 01:53:32;;;;;;;2.05;0.50;;;15.80;91.50;;;;;;5070126;28;20489;-80
2022/07/10 01:56:00;;;;;;;0.77;0.40;;;15.80;91.30;;;;;;5069125;28;20110;-81
2022/07/10 01:58:25;;;;;;;0.90;0.50;;;15.70;91.10;;;;;;5070983;28;20028;-80
2022/07/10 02:00:51;;;;;;;2.65;1.23;;;15.70;91.30;;;;;;5069605;28;20028;-81
2022/07/10 02:06:01;;;;;;;3.33;0.85;;;15.60;91.50;;;;;;5069758;28;20489;-84
2022/07/10 02:08:26;;;;;;;4.95;0.73;;;15.60;91.40;;;;;;5070568;28;20021;-82
2022/07/10 02:10:51;;;;;;;3.83;0.68;;;15.60;91.70;;;;;;5052532;28;20488;-84
2022/07/10 02:13:20;;;;;;;3.15;0.60;;;15.60;91.60;;;;;;5071337;28;20047;-84
2022/07/10 02:15:46;;;;;;;2.97;0.88;;;15.60;91.60;;;;;;5051874;28;20074;-81
2022/07/10 02:18:11;;;;;;;7.25;0.95;;;15.70;91.50;;;;;;5070907;28;20021;-80
2022/07/10 02:20:37;;;;;;;2.15;0.68;;;15.70;91.60;;;;;;5070712;28;20111;-83
2022/07/10 02:23:02;;;;;;;5.80;1.10;;;15.60;91.60;;;;;;5069868;28;20536;-81
2022/07/10 02:25:27;;;;;;;3.92;0.95;;;15.60;91.60;;;;;;5051728;28;20027;-80
2022/07/10 02:27:53;;;;;;;4.60;0.88;;;15.60;91.60;;;;;;5052536;28;20028;-81
2022/07/10 02:30:19;;;;;;;1.27;0.55;;;15.70;91.60;;;;;;5052464;28;20081;-86
2022/07/10 02:32:45;;;;;;;3.78;0.73;;;15.70;91.60;;;;;;5052438;28;20028;-85
2022/07/10 02:35:10;;;;;;;1.77;0.60;;;15.60;91.90;;;;;;5069943;28;20063;-82
2022/07/10 02:37:36;;;;;;;3.33;0.77;;;15.60;91.80;;;;;;5051702;28;20036;-81
2022/07/10 02:40:01;;;;;;;2.08;0.68;;;15.60;91.90;;;;;;5052979;28;20036;-80
2022/07/10 02:42:26;;;;;;;3.15;0.73;;;15.60;91.90;;;;;;5054526;28;20044;-84
2022/07/10 02:44:52;;;;;;;4.22;1.00;;;15.60;91.80;;;;;;5056039;28;20036;-80
2022/07/10 02:47:17;;;;;;;1.50;0.88;;;15.60;91.90;;;;;;5069911;28;20025;-80
2022/07/10 02:49:43;;;;;;;2.45;0.70;;;15.70;92.10;;;;;;5069957;28;20490;-81
2022/07/10 02:52:09;;;;;;;1.63;0.35;;;15.70;92.00;;;;;;5069804;28;20028;-81
2022/07/10 02:54:34;;;;;;;2.90;0.70;;;15.70;92.10;;;;;;5070187;28;20382;-80
2022/07/10 02:57:00;;;;;;;2.55;0.75;;;15.70;92.00;;;;;;5069622;28;20465;-78
2022/07/10 02:59:25;;;;;;;3.38;0.70;;;15.70;92.20;;;;;;5070112;28;20033;-80
2022/07/10 03:01:52;;;;;;;2.08;1.05;;;15.60;92.00;;;;;;5069431;28;20036;-86
2022/07/10 03:04:17;;;;;;;5.10;1.30;;;15.60;92.20;;;;;;5052003;28;20029;-82
2022/07/10 03:06:43;;;;;;;2.55;0.50;;;15.60;92.20;;;;;;5050971;28;20024;-82
2022/07/10 03:09:08;;;;;;;1.05;0.43;;;15.70;92.30;;;;;;5070399;28;20063;-86
2022/07/10 03:11:34;;;;;;;6.43;0.68;;;15.60;92.20;;;;;;5052672;28;20028;-82
2022/07/10 03:13:59;;;;;;;4.05;0.68;;;15.70;92.10;;;;;;5074432;28;20041;-83
2022/07/10 03:16:25;;;;;;;3.90;0.85;;;15.60;92.30;;;;;;5073490;28;20040;-80
2022/07/10 03:18:50;;;;;;;1.42;0.60;;;15.60;92.70;;;;;;5055547;28;20139;-82
2022/07/10 03:21:16;;;;;;;1.38;0.57;;;15.60;92.30;;;;;;5073244;28;20035;-81
2022/07/10 03:23:41;;;;;;;8.05;1.08;;;15.60;92.70;;;;;;5055720;28;20047;-87
2022/07/10 03:26:07;;;;;;;9.15;1.38;;;15.50;92.60;;;;;;5055145;28;20032;-84
2022/07/10 03:28:33;;;;;;;3.83;0.80;;;15.40;93.00;;;;;;5055859;28;20025;-81
2022/07/10 03:30:58;;;;;;;2.38;1.05;;;15.30;93.10;;;;;;5073185;28;20051;-81
2022/07/10 03:33:24;;;;;;;3.10;0.52;;;15.30;93.10;;;;;;5055682;28;20029;-82
2022/07/10 03:35:49;;;;;;;2.50;0.60;;;15.30;93.00;;;;;;5072773;28;20093;-82
2022/07/10 03:38:15;;;;;;;2.03;0.50;;;15.40;93.00;;;;;;5055557;28;20059;-81
2022/07/10 03:40:40;;;;;;;3.13;0.60;;;15.40;92.90;;;;;;5055867;28;20028;-86
2022/07/10 03:43:06;;;;;;;4.25;1.77;;;15.40;92.90;;;;;;5073325;28;20514;-81
2022/07/10 03:45:31;;;;;;;4.68;0.80;;;15.40;92.90;;;;;;5055243;28;20136;-83
2022/07/10 03:47:57;;;;;;;7.65;1.30;;;15.40;92.90;;;;;;5055703;28;20390;-84
2022/07/10 03:50:23;;;;;;;2.40;0.73;;;15.50;92.80;;;;;;5055125;28;20033;-83
2022/07/10 03:52:48;;;;;;;4.05;0.80;;;15.50;92.80;;;;;;5054825;28;20480;-86
2022/07/10 03:55:14;;;;;;;3.13;0.70;;;15.50;93.10;;;;;;5071993;28;20021;-81
2022/07/10 03:57:56;;;;;;;1.77;0.80;;;15.50;93.00;;;;;;5057001;28;20024;-81
2022/07/10 04:00:26;;;;;;;3.97;0.93;;;15.50;93.10;;;;;;5089193;28;20466;-82
2022/07/10 04:02:56;;;;;;;3.67;1.13;;;15.50;93.00;;;;;;5055008;28;20405;-81
2022/07/10 04:05:22;;;;;;;3.65;0.70;;;15.50;93.00;;;;;;5056393;28;20036;-80
2022/07/10 04:07:48;;;;;;;3.13;0.90;;;15.40;93.00;;;;;;5076478;28;20025;-81
2022/07/10 04:10:13;;;;;;;4.05;1.25;;;15.50;93.00;;;;;;5059765;28;20024;-81
2022/07/10 04:12:39;;;;;;;4.63;0.57;;;15.50;93.10;;;;;;5078394;28;20045;-80
2022/07/10 04:15:05;;;;;;;5.50;0.73;;;15.50;93.10;;;;;;5063399;28;20052;-79
2022/07/10 04:17:32;;;;;;;3.25;0.73;;;15.50;93.00;;;;;;5077829;28;20482;-81
2022/07/10 04:19:58;;;;;;;3.83;1.02;;;15.50;93.10;;;;;;5074300;28;20028;-81
2022/07/10 04:22:24;;;;;;;1.65;0.75;;;15.50;93.10;;;;;;5055849;28;20119;-80
2022/07/10 04:24:51;;;;;;;5.20;1.00;;;15.50;93.30;;;;;;5072445;28;20158;-83
2022/07/10 04:27:16;;;;;;;7.22;1.00;;;15.50;93.30;;;;;;5054575;28;20493;-81
2022/07/10 04:29:42;;;;;;;2.40;1.00;;;15.50;93.40;;;;;;5072521;28;20036;-82
2022/07/10 04:32:08;;;;;;;2.78;0.80;;;15.50;93.50;;;;;;5054357;28;20112;-82
2022/07/10 04:34:34;;;;;;;4.00;1.05;;;15.60;93.70;;;;;;5054670;28;20086;-82
2022/07/10 04:37:00;;;;;;;1.88;0.70;;;15.60;94.00;;;;;;5072178;28;20105;-81
2022/07/10 04:39:26;;;;;;;3.22;0.77;;;15.50;94.50;;;;;;5054900;28;20025;-86
2022/07/10 04:41:51;;;;;;;2.75;0.85;;;15.50;94.30;;;;;;5054337;28;20036;-80
2022/07/10 04:44:18;;;;;;;6.68;1.25;;;15.30;93.90;;;;;;5072792;28;20052;-83
2022/07/10 04:46:43;;;;;;;5.65;0.60;;;15.30;94.10;;;;;;5072198;28;20115;-82
2022/07/10 04:49:09;;;;;;;1.40;0.57;;;15.30;94.00;;;;;;5054457;28;20768;-82
2022/07/10 04:51:34;;;;;;;2.67;0.40;;;15.30;94.00;;;;;;5054493;28;20029;-83
2022/07/10 04:54:00;;;;;;;1.63;0.63;;;15.20;94.50;;;;;;5072827;28;20086;-82
2022/07/10 04:56:26;;;;;;;5.40;1.40;;;15.10;94.80;;;;;;5072417;28;20028;-85
2022/07/10 04:58:52;;;;;;;1.38;0.60;;;14.90;95.30;;;;;;5053824;28;20644;-86
2022/07/10 05:01:17;;;;;;;2.20;0.50;;;14.90;95.40;;;;;;5053915;28;20078;-83
2022/07/10 05:03:43;;;;;;;1.73;0.50;;;14.80;95.50;;;;;;5054371;28;20031;-82
2022/07/10 05:06:08;;;;;;;2.08;0.60;;;14.70;95.80;;;;;;5054006;28;20021;-83
2022/07/10 05:08:34;;;;;;;2.33;0.70;;;14.70;96.00;;;;;;5054325;28;20017;-83
2022/07/10 05:10:59;;;;;;;4.60;0.95;;;14.70;96.20;;;;;;5053911;28;20035;-81
2022/07/10 05:13:25;;;;;;;2.92;0.60;;;14.70;96.40;;;;;;5054081;28;20500;-86
2022/07/10 05:15:51;;;;;;;1.90;0.60;;;14.80;96.20;;;;;;5053378;28;20032;-84
2022/07/10 05:18:16;;;;;;;4.18;0.60;;;14.90;96.20;;;;;;5054068;28;20150;-84
2022/07/10 05:20:43;;;;;;;2.40;0.60;;;15.00;96.30;;;;;;5053789;28;20044;-83
2022/07/10 05:23:09;;;;;;;7.70;0.82;;;15.00;96.20;;;;;;5054001;28;20028;-83
2022/07/10 05:25:37;;;;;;;4.53;0.57;;;15.10;96.20;;;;;;5070559;28;20106;-83
2022/07/10 05:28:05;;;;;;;2.17;0.63;;;15.10;96.20;;;;;;5055082;28;20513;-83
2022/07/10 05:30:31;;;;;;;3.83;0.43;;;15.20;96.60;;;;;;5055730;28;20103;-82
2022/07/10 05:32:57;;;;;;;3.05;0.55;;;15.20;96.10;;;;;;5076623;28;20032;-83
2022/07/10 05:35:23;;;;;;;1.23;0.50;;;15.30;96.20;;;;;;5075411;28;20036;-83
2022/07/10 05:37:48;;;;;;;1.35;0.40;;;15.20;96.30;;;;;;5073342;28;20037;-86
2022/07/10 05:40:14;;;;;;;1.05;0.50;;;15.30;97.00;;;;;;5053566;28;20482;-83
2022/07/10 05:42:39;;;;;;;1.50;0.50;;;15.30;96.80;;;;;;5071463;28;20040;-83
2022/07/10 05:45:06;;;;;;;3.17;0.70;;;15.30;97.30;;;;;;5053237;28;20544;-85
2022/07/10 05:47:32;;;;;;;2.22;0.60;;;15.20;98.10;;;;;;5070183;28;20020;-84
2022/07/10 05:49:58;;;;;;;4.57;0.90;;;15.10;99.00;;;;;;5068714;28;20031;-83
2022/07/10 05:52:23;;;;;;;4.05;0.73;;;14.90;99.40;;;;;;5070930;28;20382;-83
2022/07/10 05:54:50;;;;;;;2.83;0.90;;;14.90;99.80;;;;;;5070287;28;20082;-83
2022/07/10 05:57:16;;;;;;;2.65;0.70;;;14.80;99.80;;;;;;5052598;28;20024;-82
2022/07/10 05:59:41;;;;;;;3.72;0.40;;;14.60;99.90;;;;;;5070363;28;20122;-82
2022/07/10 06:02:07;;;;;;;3.00;0.82;;;14.50;99.90;;;;;;5052379;28;20363;-84
2022/07/10 06:04:33;;;;;;;6.10;0.95;;;14.40;99.90;;;;;;5053002;28;20024;-82
2022/07/10 06:06:59;;;;;;;2.92;0.80;;;14.30;99.90;;;;;;5052180;28;20078;-82
2022/07/10 06:09:24;;;;;;;1.88;0.52;;;14.30;99.90;;;;;;5052821;28;20122;-82
2022/07/10 06:11:50;;;;;;;2.20;0.65;;;14.20;99.90;;;;;;5070309;28;20109;-82
2022/07/10 06:14:15;;;;;;;0.95;0.52;;;14.00;99.90;;;;;;5052868;28;20032;-85
2022/07/10 06:16:41;;;;;;;3.05;0.70;;;14.00;99.90;;;;;;5069259;28;20024;-84
2022/07/10 06:19:06;;;;;;;4.35;1.92;;;14.00;99.90;;;;;;5070630;28;20515;-83
2022/07/10 06:21:32;;;;;;;3.42;0.75;;;14.00;99.90;;;;;;5052106;28;20119;-82
2022/07/10 06:23:58;;;;;;;7.00;0.90;;;14.00;99.90;;;;;;5051949;28;20029;-82
2022/07/10 06:26:24;;;;;;;4.55;0.90;;;14.10;99.90;;;;;;5051727;28;20077;-84
2022/07/10 06:28:50;;;;;;;4.43;0.93;;;14.00;99.90;;;;;;5052080;28;20100;-82
2022/07/10 06:31:15;;;;;;;2.63;0.55;;;14.10;99.90;;;;;;5069889;28;20129;-83
2022/07/10 06:33:41;;;;;;;2.58;0.82;;;14.20;99.90;;;;;;5051950;28;20599;-80
2022/07/10 06:36:07;;;;;;;2.22;0.60;;;14.30;99.90;;;;;;5051764;28;20518;-82
2022/07/10 06:38:32;;;;;;;1.92;0.47;;;14.40;99.90;;;;;;5069872;28;20364;-82
2022/07/10 06:40:58;;;;;;;1.35;0.50;;;14.40;99.90;;;;;;5051604;28;20037;-83
2022/07/10 06:43:23;;;;;;;1.20;0.60;;;14.50;99.90;;;;;;5070340;28;20094;-83
2022/07/10 06:45:49;;;;;;;2.85;0.50;;;14.50;99.90;;;;;;5069479;28;20386;-83
2022/07/10 06:48:15;;;;;;;2.65;1.15;;;14.60;99.80;;;;;;5076570;28;20029;-82
2022/07/10 06:50:41;;;;;;;1.00;0.50;;;14.70;99.90;;;;;;5076927;28;20128;-86
2022/07/10 06:53:07;;;;;;;1.92;1.05;;;14.80;99.80;;;;;;5058150;28;20481;-83
2022/07/10 06:55:33;;;;;;;3.72;0.68;;;14.90;99.90;;;;;;5058048;28;20043;-83
2022/07/10 06:57:59;;;;;;;3.15;0.80;;;15.00;99.90;;;;;;5058556;28;20025;-85
2022/07/10 07:00:25;;;;;;;6.50;1.10;;;15.20;99.70;;;;;;5058836;28;20021;-83
2022/07/10 07:02:51;;;;;;;2.58;0.98;;;15.30;99.60;;;;;;5057806;28;20119;-82
2022/07/10 07:05:17;;;;;;;2.05;0.50;;;15.50;99.40;;;;;;5058270;28;20141;-85
2022/07/10 07:07:42;;;;;;;2.20;0.65;;;15.60;99.20;;;;;;5057662;28;20387;-80
2022/07/10 07:10:09;;;;;;;3.20;1.42;;;15.80;98.50;;;;;;5076615;28;20028;-81
2022/07/10 07:12:34;;;;;;;2.90;0.70;;;15.90;98.80;;;;;;5076391;28;20052;-82
2022/07/10 07:15:00;;;;;;;1.38;0.60;;;16.00;99.20;;;;;;5076381;28;20063;-84
2022/07/10 07:17:33;;;;;;;2.42;0.98;;;16.20;99.00;;;;;;5057758;28;20074;-86
2022/07/10 07:25:31;;;;;;;2.30;0.70;;;16.70;98.20;;;;;;5075704;28;20445;-83
2022/07/10 07:27:56;;;;;;;2.22;0.60;;;16.70;97.60;;;;;;5058469;28;20029;-82
2022/07/10 07:30:22;;;;;;;4.18;0.90;;;16.70;97.30;;;;;;5058620;28;20032;-81
2022/07/10 07:32:47;;;;;;;2.50;0.80;;;16.70;97.30;;;;;;5076117;28;20033;-82
2022/07/10 07:35:15;;;;;;;1.08;0.60;;;16.70;97.00;;;;;;5076760;28;20025;-83
2022/07/10 07:37:41;;;;;;;4.20;0.75;;;16.70;97.50;;;;;;5075600;28;20063;-84
2022/07/10 07:40:09;;;;;;;2.65;0.68;;;16.60;97.30;;;;;;5092366;28;20051;-85
2022/07/10 07:42:36;;;;;;;4.25;0.70;;;16.60;97.90;;;;;;5079492;28;20047;-81
2022/07/10 07:45:03;;;;;;;4.13;1.23;;;16.60;97.50;;;;;;5059192;28;20029;-81
2022/07/10 07:47:31;;;;;;;5.53;1.73;;;16.60;97.40;;;;;;5075737;28;20486;-81
2022/07/10 07:49:56;;;;;;;5.97;1.25;;;16.60;97.00;;;;;;5076680;28;20032;-81
2022/07/10 07:52:22;;;;;;;1.48;0.52;;;16.60;97.60;;;;;;5075895;28;20110;-84
2022/07/10 07:54:48;;;;;;;2.35;0.70;;;16.60;97.90;;;;;;5057621;28;20111;-82
2022/07/10 07:57:14;;;;;;;2.08;0.60;;;16.70;97.90;;;;;;5075816;28;20029;-84
2022/07/10 07:59:39;;;;;;;3.50;0.68;;;16.80;97.20;;;;;;5072209;28;20488;-82
2022/07/10 08:02:05;;;;;;;5.10;1.58;;;16.90;96.90;;;;;;5055141;28;20023;-81
2022/07/10 08:04:31;;;;;;;2.65;0.70;;;16.90;97.00;;;;;;5055299;28;20040;-83
2022/07/10 08:06:56;;;;;;;5.65;0.73;;;17.00;96.30;;;;;;5072464;28;20779;-82
2022/07/10 08:09:22;;;;;;;2.58;0.60;;;17.00;96.70;;;;;;5054673;28;20075;-84
2022/07/10 08:11:47;;;;;;;0.93;0.52;;;17.10;97.30;;;;;;5054289;28;20378;-84
2022/07/10 08:14:14;;;;;;;3.50;0.60;;;17.30;96.90;;;;;;5072817;28;20028;-84
2022/07/10 08:16:40;;;;;;;2.20;0.82;;;17.40;96.20;;;;;;5054873;28;20036;-83
2022/07/10 08:19:05;;;;;;;1.77;0.50;;;17.30;95.30;;;;;;5072967;28;20028;-83
2022/07/10 08:21:31;;;;;;;2.40;1.17;;;17.20;95.10;;;;;;5072166;28;20481;-83
2022/07/10 08:23:57;;;;;;;2.38;0.40;;;17.20;94.40;;;;;;5072586;28;20111;-82
2022/07/10 08:26:22;;;;;;;2.28;0.73;;;17.20;94.60;;;;;;5072230;28;20423;-81
2022/07/10 08:28:48;;;;;;;3.05;0.50;;;17.10;94.20;;;;;;5054376;28;20033;-86
2022/07/10 08:31:13;;;;;;;3.38;0.77;;;17.10;94.20;;;;;;5054057;28;20479;-82
2022/07/10 08:33:39;;;;;;;2.65;0.60;;;17.10;94.20;;;;;;5054538;28;20394;-82
2022/07/10 08:36:05;;;;;;;4.47;0.75;;;17.00;94.10;;;;;;5053872;28;20475;-82
2022/07/10 08:38:30;;;;;;;3.35;0.57;;;17.00;94.00;;;;;;5071896;28;20379;-85
2022/07/10 08:40:57;;;;;;;1.88;0.63;;;17.10;93.70;;;;;;5053193;28;20047;-82
2022/07/10 08:43:24;;;;;;;4.10;0.75;;;17.20;93.60;;;;;;5054362;28;20135;-82
2022/07/10 08:45:50;;;;;;;1.38;0.57;;;17.20;94.40;;;;;;5071497;28;20382;-84
2022/07/10 08:48:21;;;;;;;1.58;0.80;;;17.40;94.50;;;;;;5072667;28;20106;-82
2022/07/10 08:50:48;;;;;;;2.15;0.60;;;17.50;94.00;;;;;;5053835;28;20457;-82
2022/07/10 08:53:21;;;;;;;3.35;0.70;;;17.60;93.40;;;;;;5072216;28;20028;-84
2022/07/10 08:55:47;;;;;;;2.20;0.77;;;17.60;93.30;;;;;;5071098;28;20032;-83
2022/07/10 08:58:13;;;;;;;2.65;0.70;;;17.60;93.50;;;;;;5071887;28;20098;-86
2022/07/10 09:00:38;;;;;;;2.92;0.93;;;17.60;93.40;;;;;;5053698;28;20025;-82
2022/07/10 09:03:04;;;;;;;4.57;0.82;;;17.50;92.70;;;;;;5053814;28;20445;-82
2022/07/10 09:05:29;;;;;;;2.78;0.60;;;17.40;93.00;;;;;;5053399;28;20390;-85
2022/07/10 09:07:56;;;;;;;4.20;0.82;;;17.40;92.80;;;;;;5053765;28;20028;-81
2022/07/10 09:10:25;;;;;;;6.13;0.75;;;17.40;92.90;;;;;;5053035;28;20028;-82
2022/07/10 09:12:59;;;;;;;3.53;0.90;;;17.50;92.80;;;;;;5053233;28;20042;-82
2022/07/10 09:15:29;;;;;;;2.95;0.90;;;17.70;92.60;;;;;;5071337;28;20028;-80
2022/07/10 09:17:57;;;;;;;3.72;0.88;;;17.80;92.00;;;;;;5053230;28;20081;-84
2022/07/10 09:20:26;;;;;;;3.22;0.75;;;18.10;91.90;;;;;;5053917;28;20101;-82
2022/07/10 09:22:52;;;;;;;3.00;0.90;;;18.10;91.40;;;;;;5053290;28;20033;-82
2022/07/10 09:25:17;;;;;;;6.00;1.40;;;18.00;90.20;;;;;;5070889;28;20044;-82
2022/07/10 09:27:54;;;;;;;4.88;0.73;;;18.00;90.00;;;;;;5071245;28;20040;-81
2022/07/10 09:30:35;;;;;;;3.42;0.75;;;18.00;89.80;;;;;;5053840;28;20029;-83
2022/07/10 09:33:27;;;;;;;2.78;1.10;;;17.90;90.40;;;;;;5052976;28;20486;-82
2022/07/10 09:36:05;;;;;;;3.85;0.98;;;17.90;91.00;;;;;;5052798;28;20033;-85
2022/07/10 09:38:49;;;;;;;3.50;0.73;;;17.90;90.70;;;;;;5053290;28;20717;-82
2022/07/10 09:41:23;;;;;;;5.35;1.20;;;17.80;91.60;;;;;;5066341;28;20033;-82
2022/07/10 09:43:57;;;;;;;3.88;0.98;;;17.70;91.10;;;;;;5066776;28;20032;-83
2022/07/10 09:46:34;;;;;;;3.38;0.80;;;17.70;91.40;;;;;;5086426;28;20029;-82
2022/07/10 09:49:09;;;;;;;3.65;0.82;;;17.70;90.80;;;;;;5051542;28;20111;-82
2022/07/10 09:51:45;;;;;;;4.50;1.15;;;17.80;91.50;;;;;;5050866;28;20047;-83
2022/07/10 09:54:11;;;;;;;5.10;1.50;;;18.10;91.50;;;;;;5076083;28;20127;-82
2022/07/10 09:56:43;;;;;;;6.57;1.17;;;18.30;91.10;;;;;;5052695;28;20024;-82
2022/07/10 09:59:16;;;;;;;3.47;1.05;;;18.40;90.10;;;;;;5053285;28;20036;-82
2022/07/10 10:01:47;;;;;;;8.85;1.00;;;18.40;90.70;;;;;;5052556;28;20020;-87
2022/07/10 10:04:14;;;;;;;2.17;0.75;;;18.50;90.20;;;;;;5070680;28;20132;-82
2022/07/10 10:06:41;;;;;;;2.92;0.80;;;18.50;90.60;;;;;;5052188;28;20078;-83
2022/07/10 10:09:13;;;;;;;3.55;0.82;;;18.50;90.00;;;;;;5071106;28;20037;-82
2022/07/10 10:11:43;;;;;;;4.93;0.93;;;18.60;89.10;;;;;;5053194;28;20024;-83
2022/07/10 10:14:09;;;;;;;4.28;1.67;;;18.60;90.20;;;;;;5053215;28;20036;-84
2022/07/10 10:16:37;;;;;;;3.15;0.80;;;18.60;89.90;;;;;;5052286;28;20020;-82
2022/07/10 10:21:47;;;;;;;3.13;0.77;;;18.60;88.60;;;;;;5069941;28;20807;-82
2022/07/10 10:24:14;;;;;;;3.35;1.00;;;18.40;87.20;;;;;;5086219;28;20040;-83
2022/07/10 10:26:41;;;;;;;3.15;0.73;;;18.30;88.40;;;;;;5051769;28;20024;-84
2022/07/10 10:29:08;;;;;;;2.50;1.23;;;18.20;88.10;;;;;;5052518;28;20394;-83
2022/07/10 10:31:34;;;;;;;2.90;1.15;;;18.10;88.20;;;;;;5052248;28;20028;-83
2022/07/10 10:34:00;;;;;;;3.38;0.88;;;18.00;87.70;;;;;;5070363;28;20135;-82
2022/07/10 10:36:36;;;;;;;1.95;0.73;;;17.90;86.50;;;;;;5052427;28;20039;-87
2022/07/10 10:39:18;;;;;;;4.05;0.73;;;17.80;86.80;;;;;;5052660;28;20082;-84
2022/07/10 10:41:54;;;;;;;3.05;0.93;;;17.90;87.00;;;;;;5052098;28;20040;-85
2022/07/10 10:44:21;;;;;;;2.33;0.88;;;17.90;88.00;;;;;;5052901;28;20072;-84
2022/07/10 10:46:53;;;;;;;5.50;1.00;;;18.00;87.20;;;;;;5071096;28;20048;-83
2022/07/10 10:49:19;;;;;;;5.80;1.63;;;18.10;85.30;;;;;;5053469;28;20024;-82
2022/07/10 10:52:08;;;;;;;3.25;0.80;;;18.20;85.90;;;;;;5070413;28;20164;-82
2022/07/10 10:54:56;;;;;;;4.15;0.70;;;18.30;86.40;;;;;;5070740;28;20386;-82
2022/07/10 10:57:22;;;;;;;4.40;0.82;;;18.40;84.40;;;;;;5070396;28;20025;-82
2022/07/10 10:59:50;;;;;;;2.78;0.70;;;18.50;85.80;;;;;;5052130;28;20474;-83
2022/07/10 11:02:34;;;;;;;3.80;1.10;;;18.80;85.40;;;;;;5070554;28;20028;-88
2022/07/10 11:05:18;;;;;;;8.30;1.20;;;18.90;83.20;;;;;;5071189;28;20200;-81
2022/07/10 11:08:05;;;;;;;4.43;0.88;;;19.20;84.20;;;;;;5054493;28;20039;-82
2022/07/10 11:10:37;;;;;;;2.08;0.88;;;19.40;81.30;;;;;;5073330;28;20082;-84
2022/07/10 11:13:13;;;;;;;4.55;0.80;;;19.60;80.50;;;;;;5053584;28;20032;-83
2022/07/10 11:15:47;;;;;;;3.47;0.80;;;19.70;82.20;;;;;;5054337;28;20120;-85
2022/07/10 11:18:15;;;;;;;2.72;0.80;;;19.80;80.40;;;;;;5055601;28;20032;-89
2022/07/10 11:20:49;;;;;;;5.03;1.13;;;19.90;81.00;;;;;;5052379;28;20475;-84
2022/07/10 11:23:47;;;;;;;3.65;1.50;;;19.90;80.50;;;;;;5052862;28;20043;-89
2022/07/10 11:26:28;;;;;;;2.08;0.88;;;20.00;81.20;;;;;;5070002;28;20025;-81
2022/07/10 11:28:55;;;;;;;2.35;0.60;;;20.00;79.40;;;;;;5070799;28;20024;-82
2022/07/10 11:31:26;;;;;;;3.28;0.70;;;20.20;79.90;;;;;;5052465;28;20386;-88
2022/07/10 11:33:53;;;;;;;4.43;0.88;;;20.40;77.60;;;;;;5087621;28;20070;-88
2022/07/10 11:36:25;;;;;;;6.18;1.15;;;20.60;79.20;;;;;;5073700;28;20467;-84
2022/07/10 11:38:57;;;;;;;5.72;0.70;;;20.60;77.20;;;;;;5074617;28;20028;-83
2022/07/10 11:41:23;;;;;;;1.92;0.63;;;20.50;77.50;;;;;;5089525;28;20513;-84
2022/07/10 11:43:59;;;;;;;2.97;0.80;;;20.20;76.60;;;;;;5074677;28;20046;-83
2022/07/10 11:46:27;;;;;;;3.53;0.60;;;19.80;77.90;;;;;;5055456;28;20502;-86
2022/07/10 11:48:53;;;;;;;4.78;1.08;;;19.70;79.70;;;;;;5073472;28;20532;-84
2022/07/10 11:51:24;;;;;;;5.93;0.98;;;19.60;80.10;;;;;;5056069;28;20067;-85
2022/07/10 11:53:57;;;;;;;2.80;0.83;;;19.60;79.10;;;;;;5055296;28;20040;-84
2022/07/10 11:56:24;;;;;;;4.65;1.05;;;19.60;79.20;;;;;;5060235;28;20282;-84
2022/07/10 11:59:03;;;;;;;4.05;0.95;;;19.40;79.80;;;;;;5073834;28;20040;-88
2022/07/10 12:01:35;;;;;;;6.90;0.85;;;19.40;81.10;;;;;;5055998;28;20478;-85
2022/07/10 12:04:05;;;;;;;1.25;0.52;;;19.40;80.30;;;;;;5055275;28;20033;-84
2022/07/10 12:06:33;;;;;;;6.00;1.48;;;19.50;80.60;;;;;;5061015;28;20031;-86
2022/07/10 12:09:07;;;;;;;5.03;0.50;;;19.50;79.20;;;;;;5071933;28;20039;-82
2022/07/10 12:11:34;;;;;;;3.97;0.85;;;19.70;78.40;;;;;;5073514;28;20046;-86
2022/07/10 12:14:11;;;;;;;3.28;1.00;;;19.80;80.60;;;;;;5072099;28;20021;-84
2022/07/10 12:16:36;;;;;;;2.45;0.70;;;20.10;78.30;;;;;;5066412;28;20028;-82
2022/07/10 12:19:03;;;;;;;3.20;0.73;;;20.40;79.60;;;;;;5073992;28;20126;-87
2022/07/10 12:21:29;;;;;;;4.30;0.90;;;20.70;74.80;;;;;;5088676;28;20386;-88
2022/07/10 12:23:56;;;;;;;3.92;0.93;;;20.90;75.50;;;;;;5055550;28;20033;-83
2022/07/10 12:26:21;;;;;;;2.53;0.77;;;21.10;76.20;;;;;;5072400;28;20458;-83
2022/07/10 12:28:55;;;;;;;4.13;0.88;;;21.30;77.10;;;;;;5054837;28;20031;-82
2022/07/10 12:31:29;;;;;;;5.28;0.63;;;21.30;75.10;;;;;;5073305;28;20090;-83
2022/07/10 12:33:57;;;;;;;2.08;0.90;;;21.10;75.20;;;;;;5054630;28;20028;-83
2022/07/10 12:36:24;;;;;;;3.97;0.60;;;20.90;73.70;;;;;;5054159;28;20041;-83
2022/07/10 12:38:55;;;;;;;2.17;0.70;;;20.60;73.30;;;;;;5054926;28;20486;-90
2022/07/10 12:41:24;;;;;;;2.83;0.60;;;20.30;74.60;;;;;;5055005;28;20040;-84
2022/07/10 12:43:50;;;;;;;3.70;0.63;;;20.20;73.90;;;;;;5054819;28;20040;-86
2022/07/10 12:46:23;;;;;;;3.42;0.73;;;20.10;74.90;;;;;;5055145;28;20074;-87
2022/07/10 12:49:05;;;;;;;6.00;0.50;;;20.10;74.90;;;;;;5057303;28;20028;-83
2022/07/10 12:51:33;;;;;;;5.07;0.70;;;20.20;76.30;;;;;;5055173;28;20028;-84
2022/07/10 12:53:59;;;;;;;3.47;0.85;;;20.30;75.10;;;;;;5073453;28;20506;-83
2022/07/10 12:56:34;;;;;;;6.72;1.23;;;20.30;75.40;;;;;;5039820;28;20087;-81
2022/07/10 12:59:10;;;;;;;2.60;0.70;;;20.60;76.00;;;;;;5056492;28;20070;-80
2022/07/10 13:01:43;;;;;;;5.22;0.68;;;20.90;72.20;;;;;;5038084;28;20040;-79